aviador You're here:

LEVX Decoded Metar

VIGO in SPAIN
Report Time2017-08-23 04:00:00
UTC Time2017-08-23 04:06:33
Flight Rules vfr VFR
WindCalm
Visibility9999 m
Phenomena:N/A
Clouds:N/A
Expected CloudBase > 800 ft AGL from Temp-Dew spread
CeilingNone
Temp17°C (ISA +4)
Dew Point15°C (88% RH)
QNH1017 hPa
Density Alt1,368 ft
Elevation840 ft
Report Wrong Elevation
Raw Report
METAR LEVX 230400Z 00000KT CAVOK 17/15 Q1017 NOSIG=

Extra information for LEVX:More info

Metar Taf Metar & Taf Last 4 Metars F.Rules Stats Wind Profile Meteogram Temp Stats Airport Information Weather charts Add Link Nearby VenuesMetar ALERT Operation Metar Decoded Social comments